Time;durP1;ratioP1;P1;durP2;ratioP2;P2;SDS_P1;SDS_P2;PMS_P1;PMS_P2;Temp;Humidity;BMP_temperature;BMP_pressure;BME280_temperature;BME280_humidity;BME280_pressure;Samples;Min_cycle;Max_cycle;Signal;HPM_P1;HPM_P2
2022/04/26 03:36:06;;;;;;;;;;;13.50;97.80;;;;;;5019273;28;19923;-69
2022/04/26 03:37:05;;;;;;;;;;;7.50;99.90;;;;;;5004586;28;19927;-53
2022/04/26 03:39:31;;;;;;;;;;;7.50;99.90;;;;;;5005511;28;19949;-57
2022/04/26 03:41:56;;;;;;;;;;;7.50;99.90;;;;;;5004903;28;19918;-55
2022/04/26 03:44:22;;;;;;;;;;;7.60;99.90;;;;;;5004896;28;19918;-49
2022/04/26 03:46:47;;;;;;;;;;;7.60;99.90;;;;;;5004986;28;19918;-50
2022/04/26 03:49:13;;;;;;;;;;;7.50;99.90;;;;;;5004846;28;19964;-55
2022/04/26 03:51:38;;;;;;;;;;;7.60;99.90;;;;;;5005660;28;19917;-52
2022/04/26 03:54:03;;;;;;;;;;;7.50;99.90;;;;;;5004248;28;19917;-55
2022/04/26 03:56:29;;;;;;;;;;;7.50;99.90;;;;;;5005080;28;19914;-57
2022/04/26 03:58:54;;;;;;;;;;;7.50;99.90;;;;;;5005268;28;19917;-50
2022/04/26 04:01:20;;;;;;;;;;;7.50;99.90;;;;;;5003701;28;19973;-57
2022/04/26 04:03:45;;;;;;;;;;;7.50;99.90;;;;;;5001842;28;20069;-53
2022/04/26 04:06:11;;;;;;;;;;;7.50;99.90;;;;;;5004072;28;20000;-55
2022/04/26 04:08:36;;;;;;;;;;;7.50;99.90;;;;;;5004994;28;20048;-51
2022/04/26 04:11:01;;;;;;;;;;;7.50;99.90;;;;;;5004342;28;20002;-57
2022/04/26 04:13:27;;;;;;;;;;;7.50;99.90;;;;;;5003490;28;19970;-50
2022/04/26 04:15:52;;;;;;;;;;;7.40;99.90;;;;;;5002270;28;20389;-51
2022/04/26 04:21:02;;;;;;;;;;;7.40;99.90;;;;;;4991620;28;19958;-57
2022/04/26 04:23:28;;;;;;;;;;;7.40;99.90;;;;;;4999395;28;19918;-52
2022/04/26 04:25:53;;;;;;;;;;;7.60;99.90;;;;;;5003634;28;19918;-55
2022/04/26 04:28:18;;;;;;;;;;;7.60;99.90;;;;;;5003643;28;20387;-49
2022/04/26 04:30:44;;;;;;;;;;;7.70;99.90;;;;;;5003068;28;19917;-51
2022/04/26 04:33:10;;;;;;;;;;;7.70;99.90;;;;;;5001586;28;19913;-54
2022/04/26 04:35:35;;;;;;;;;;;7.70;99.90;;;;;;5003170;28;19932;-48
2022/04/26 04:38:01;;;;;;;;;;;7.70;99.90;;;;;;5001332;28;19913;-49
2022/04/26 04:40:26;;;;;;;;;;;7.70;99.90;;;;;;5002874;28;19928;-53
2022/04/26 04:42:52;;;;;;;;;;;7.70;99.90;;;;;;5001139;28;19914;-51
2022/04/26 04:45:17;;;;;;;;;;;7.80;99.90;;;;;;5002677;28;19917;-52
2022/04/26 04:47:43;;;;;;;;;;;7.90;99.90;;;;;;5003899;28;19920;-54
2022/04/26 04:50:09;;;;;;;;;;;8.10;99.90;;;;;;5003342;28;19917;-51
2022/04/26 04:52:34;;;;;;;;;;;8.30;99.90;;;;;;5000986;28;20310;-55
2022/04/26 04:55:00;;;;;;;;;;;8.40;99.90;;;;;;5000942;28;19959;-54
2022/04/26 04:57:25;;;;;;;;;;;8.40;99.90;;;;;;5000286;28;20004;-55
2022/04/26 04:59:51;;;;;;;;;;;8.40;99.90;;;;;;5000811;28;20005;-54
2022/04/26 05:02:16;;;;;;;;;;;8.40;99.90;;;;;;5000907;28;19914;-53
2022/04/26 05:04:42;;;;;;;;;;;8.40;99.90;;;;;;4999629;28;20309;-55
2022/04/26 05:07:08;;;;;;;;;;;8.40;99.90;;;;;;4999746;28;19917;-53
2022/04/26 05:09:34;;;;;;;;;;;8.40;99.90;;;;;;5001672;28;20326;-57
2022/04/26 05:11:59;;;;;;;;;;;8.50;99.90;;;;;;4995769;28;20279;-52
2022/04/26 05:14:25;;;;;;;;;;;8.40;99.90;;;;;;5001460;28;19918;-52
2022/04/26 05:16:50;;;;;;;;;;;8.50;99.90;;;;;;5000422;28;19924;-56
2022/04/26 05:19:16;;;;;;;;;;;8.60;99.90;;;;;;4999238;28;19921;-51
2022/04/26 05:21:41;;;;;;;;;;;8.80;99.90;;;;;;5001651;28;20370;-54
2022/04/26 05:26:52;;;;;;;;;;;9.70;99.90;;;;;;5002621;28;19959;-53
2022/04/26 05:29:17;;;;;;;;;;;10.20;99.90;;;;;;5002202;28;20262;-55
2022/04/26 05:31:43;;;;;;;;;;;10.50;99.90;;;;;;4999653;28;19922;-55
2022/04/26 05:34:08;;;;;;;;;;;10.60;99.90;;;;;;5002804;28;20012;-53
2022/04/26 05:36:34;;;;;;;;;;;10.60;99.90;;;;;;4998854;28;19974;-55
2022/04/26 05:39:00;;;;;;;;;;;10.60;99.90;;;;;;5004031;28;19921;-50
2022/04/26 05:41:26;;;;;;;;;;;10.60;99.90;;;;;;5001508;28;19913;-52
2022/04/26 05:43:51;;;;;;;;;;;10.70;99.90;;;;;;4999156;28;20355;-53
2022/04/26 05:46:17;;;;;;;;;;;10.80;99.90;;;;;;5003016;28;19914;-50
2022/04/26 05:48:42;;;;;;;;;;;11.00;99.90;;;;;;5003550;28;19974;-50
2022/04/26 05:51:08;;;;;;;;;;;11.00;99.90;;;;;;5001649;28;19928;-52
2022/04/26 05:53:35;;;;;;;;;;;10.90;99.90;;;;;;5003480;28;19957;-52
2022/04/26 05:56:00;;;;;;;;;;;10.90;99.90;;;;;;5003418;28;19927;-50
2022/04/26 05:58:26;;;;;;;;;;;10.90;99.90;;;;;;5002138;28;19913;-50
2022/04/26 06:00:51;;;;;;;;;;;10.80;99.90;;;;;;5003495;28;20387;-54
2022/04/26 06:03:17;;;;;;;;;;;10.70;99.90;;;;;;5003781;28;20037;-53
2022/04/26 06:05:42;;;;;;;;;;;10.80;99.90;;;;;;5003252;28;19956;-53
2022/04/26 06:08:08;;;;;;;;;;;10.80;99.90;;;;;;5003745;28;19949;-57
2022/04/26 06:10:35;;;;;;;;;;;10.90;99.90;;;;;;5003191;28;19928;-56
2022/04/26 06:13:00;;;;;;;;;;;10.90;99.90;;;;;;5045171;22;19939;-57
2022/04/26 06:15:26;;;;;;;;;;;10.90;99.90;;;;;;5049218;28;19909;-57
2022/04/26 06:17:51;;;;;;;;;;;11.00;99.90;;;;;;5037438;28;19913;-56
2022/04/26 06:20:17;;;;;;;;;;;11.00;99.90;;;;;;5025194;28;19920;-57
2022/04/26 06:22:42;;;;;;;;;;;11.20;99.90;;;;;;5024505;28;19970;-57
2022/04/26 06:25:08;;;;;;;;;;;11.30;99.90;;;;;;5032683;28;19917;-57
2022/04/26 06:27:33;;;;;;;;;;;11.40;99.90;;;;;;5028599;28;19913;-57
2022/04/26 06:29:59;;;;;;;;;;;11.50;99.90;;;;;;5027099;28;19923;-56
2022/04/26 06:32:24;;;;;;;;;;;11.60;99.90;;;;;;5024423;28;19924;-56
2022/04/26 06:34:49;;;;;;;;;;;11.70;99.90;;;;;;5032279;28;19917;-57
2022/04/26 06:37:15;;;;;;;;;;;11.80;99.90;;;;;;5024663;28;19924;-57
2022/04/26 06:39:40;;;;;;;;;;;11.80;99.90;;;;;;5029903;28;20031;-58
2022/04/26 06:42:06;;;;;;;;;;;12.00;99.90;;;;;;5025534;28;19924;-57
2022/04/26 06:44:32;;;;;;;;;;;12.10;99.90;;;;;;5032113;28;20465;-58
2022/04/26 06:46:57;;;;;;;;;;;12.10;99.90;;;;;;5029565;28;20280;-56
2022/04/26 06:49:23;;;;;;;;;;;12.20;99.90;;;;;;5027961;28;20283;-54
2022/04/26 06:51:48;;;;;;;;;;;12.30;99.90;;;;;;5029678;28;19988;-56
2022/04/26 06:54:14;;;;;;;;;;;12.40;99.90;;;;;;5029155;28;20122;-57
2022/04/26 06:56:40;;;;;;;;;;;12.50;99.90;;;;;;5026549;28;20423;-57
2022/04/26 06:59:06;;;;;;;;;;;12.70;99.90;;;;;;5025060;28;19921;-57
2022/04/26 07:01:31;;;;;;;;;;;12.80;99.90;;;;;;5034136;28;20122;-57
2022/04/26 07:03:57;;;;;;;;;;;12.90;99.90;;;;;;5024854;28;20374;-57
2022/04/26 07:06:22;;;;;;;;;;;13.00;99.90;;;;;;5026329;28;20293;-57
2022/04/26 07:08:48;;;;;;;;;;;12.90;99.90;;;;;;5025294;28;19939;-56
2022/04/26 07:11:17;;;;;;;;;;;12.90;99.90;;;;;;5034285;28;19967;-57
2022/04/26 07:13:42;;;;;;;;;;;13.00;99.90;;;;;;5026995;28;20388;-57
2022/04/26 07:16:08;;;;;;;;;;;13.10;99.90;;;;;;5033933;28;19920;-56
2022/04/26 07:18:34;;;;;;;;;;;13.30;99.90;;;;;;5026388;28;19917;-57
2022/04/26 07:20:59;;;;;;;;;;;13.50;99.90;;;;;;5030715;28;19913;-57
2022/04/26 07:23:25;;;;;;;;;;;13.70;99.90;;;;;;5025959;28;20379;-58
2022/04/26 07:25:52;;;;;;;;;;;13.80;99.90;;;;;;5024684;28;20271;-57
2022/04/26 07:28:19;;;;;;;;;;;13.90;99.90;;;;;;5030898;28;20310;-57
2022/04/26 07:30:44;;;;;;;;;;;13.90;99.90;;;;;;5027554;28;19924;-56
2022/04/26 07:35:54;;;;;;;;;;;14.10;99.90;;;;;;5026330;28;19970;-57
2022/04/26 07:38:20;;;;;;;;;;;14.10;98.70;;;;;;5027388;28;19968;-55
2022/04/26 07:40:45;;;;;;;;;;;14.00;98.80;;;;;;5028766;28;20003;-57
2022/04/26 07:43:11;;;;;;;;;;;14.00;99.20;;;;;;5026043;28;20113;-57
2022/04/26 07:45:40;;;;;;;;;;;14.20;99.30;;;;;;5029178;28;19914;-57
2022/04/26 07:48:06;;;;;;;;;;;14.30;98.90;;;;;;5028091;28;19921;-55
2022/04/26 07:50:33;;;;;;;;;;;14.40;98.80;;;;;;5037060;28;19920;-55
2022/04/26 07:52:59;;;;;;;;;;;14.50;98.80;;;;;;5029879;28;19912;-56
2022/04/26 07:55:24;;;;;;;;;;;14.70;99.00;;;;;;5034450;28;19921;-57
2022/04/26 07:57:50;;;;;;;;;;;14.80;98.80;;;;;;5033200;28;20565;-58
2022/04/26 08:00:16;;;;;;;;;;;15.00;97.90;;;;;;5027851;28;19939;-57
2022/04/26 08:02:41;;;;;;;;;;;15.10;96.10;;;;;;5032951;28;20448;-57
2022/04/26 08:05:07;;;;;;;;;;;15.10;96.70;;;;;;5035279;28;19958;-57
2022/04/26 08:07:34;;;;;;;;;;;15.10;96.70;;;;;;5035014;28;20232;-56
2022/04/26 08:09:59;;;;;;;;;;;15.10;94.90;;;;;;5032028;28;19992;-56
2022/04/26 08:12:25;;;;;;;;;;;15.10;94.70;;;;;;5031679;28;20547;-57
2022/04/26 08:14:50;;;;;;;;;;;15.20;95.30;;;;;;5036191;28;20297;-56
2022/04/26 08:17:16;;;;;;;;;;;15.30;94.10;;;;;;5028987;28;19928;-56
2022/04/26 08:19:42;;;;;;;;;;;15.50;94.50;;;;;;5038494;28;19909;-56
2022/04/26 08:22:08;;;;;;;;;;;15.90;94.30;;;;;;5030991;28;19918;-57
2022/04/26 08:27:25;;;;;;;;;;;16.20;93.80;;;;;;5034703;28;19920;-56
2022/04/26 08:29:51;;;;;;;;;;;16.20;93.70;;;;;;5027795;28;19921;-57
2022/04/26 08:32:16;;;;;;;;;;;16.20;93.70;;;;;;5030580;28;19992;-57
2022/04/26 08:34:42;;;;;;;;;;;16.10;92.80;;;;;;5032894;28;19913;-55
2022/04/26 08:37:08;;;;;;;;;;;16.10;92.60;;;;;;5027046;28;19928;-57
2022/04/26 08:39:34;;;;;;;;;;;16.10;92.30;;;;;;5029732;28;19913;-57
2022/04/26 08:42:00;;;;;;;;;;;16.20;90.30;;;;;;5031379;28;19913;-55
2022/04/26 08:44:27;;;;;;;;;;;16.40;91.00;;;;;;5034117;28;20059;-56
2022/04/26 08:52:21;;;;;;;;;;;16.50;90.20;;;;;;5026674;28;20031;-57
2022/04/26 08:54:49;;;;;;;;;;;16.60;90.60;;;;;;5030112;28;19955;-56
2022/04/26 08:57:14;;;;;;;;;;;16.70;87.90;;;;;;5024568;28;20020;-56
2022/04/26 08:59:46;;;;;;;;;;;16.50;87.70;;;;;;5029549;28;20015;-57
2022/04/26 09:02:16;;;;;;;;;;;16.40;88.50;;;;;;5027511;28;19923;-57
2022/04/26 09:04:42;;;;;;;;;;;16.40;87.60;;;;;;5028426;28;19920;-57
2022/04/26 09:07:27;;;;;;;;;;;16.20;88.30;;;;;;5032417;28;19917;-56
2022/04/26 09:10:02;;;;;;;;;;;16.20;87.30;;;;;;5033422;28;20381;-57
2022/04/26 09:12:28;;;;;;;;;;;16.10;88.40;;;;;;5033960;28;20052;-58
2022/04/26 09:14:54;;;;;;;;;;;16.20;89.40;;;;;;5033982;28;20019;-56
2022/04/26 09:17:19;;;;;;;;;;;16.30;90.00;;;;;;5034405;28;19979;-55
2022/04/26 09:19:49;;;;;;;;;;;16.40;89.80;;;;;;5026293;28;20181;-57
2022/04/26 09:22:18;;;;;;;;;;;16.80;90.50;;;;;;5027791;28;19982;-57
2022/04/26 09:24:57;;;;;;;;;;;17.10;86.60;;;;;;5031714;28;19963;-55
2022/04/26 09:27:23;;;;;;;;;;;17.20;85.40;;;;;;5028411;28;19924;-57
2022/04/26 09:29:49;;;;;;;;;;;17.30;84.60;;;;;;5027650;28;19917;-57
2022/04/26 09:32:14;;;;;;;;;;;17.20;79.60;;;;;;5030744;28;20263;-57
2022/04/26 09:34:40;;;;;;;;;;;17.00;81.80;;;;;;5033516;28;20382;-55
2022/04/26 09:37:05;;;;;;;;;;;17.00;84.10;;;;;;5029341;28;19948;-56
2022/04/26 09:39:31;;;;;;;;;;;17.10;87.00;;;;;;5027296;28;20294;-57
2022/04/26 09:41:57;;;;;;;;;;;17.10;84.70;;;;;;5034341;28;20407;-56
2022/04/26 09:44:33;;;;;;;;;;;17.10;86.30;;;;;;5025804;28;19964;-53
2022/04/26 09:46:58;;;;;;;;;;;17.10;86.70;;;;;;5029499;28;19917;-57
2022/04/26 09:49:25;;;;;;;;;;;17.20;87.20;;;;;;5027203;28;19913;-56
2022/04/26 09:51:54;;;;;;;;;;;17.20;88.40;;;;;;5027057;28;19999;-57
2022/04/26 09:54:20;;;;;;;;;;;17.10;87.10;;;;;;5027876;28;20392;-56
2022/04/26 09:56:45;;;;;;;;;;;17.00;89.30;;;;;;5027335;28;20107;-57
2022/04/26 09:59:13;;;;;;;;;;;17.00;89.20;;;;;;5026658;28;19919;-57
2022/04/26 10:01:41;;;;;;;;;;;17.00;90.20;;;;;;5025757;28;19949;-56
2022/04/26 10:04:12;;;;;;;;;;;17.00;87.60;;;;;;5026773;28;19917;-56
2022/04/26 10:06:39;;;;;;;;;;;17.00;88.90;;;;;;5026475;28;20003;-56
2022/04/26 10:09:06;;;;;;;;;;;17.10;87.70;;;;;;5028267;28;20009;-54
2022/04/26 10:11:31;;;;;;;;;;;17.10;86.40;;;;;;5027803;28;19917;-57
2022/04/26 10:13:57;;;;;;;;;;;17.10;85.20;;;;;;5034980;28;19927;-56
2022/04/26 10:16:23;;;;;;;;;;;17.00;82.80;;;;;;5032752;28;19926;-56
2022/04/26 10:18:49;;;;;;;;;;;17.00;82.20;;;;;;5036697;28;20105;-56
2022/04/26 10:21:21;;;;;;;;;;;17.00;82.50;;;;;;5029805;28;20620;-57
2022/04/26 10:23:54;;;;;;;;;;;17.00;82.40;;;;;;5030159;28;19916;-54
2022/04/26 10:26:23;;;;;;;;;;;17.20;85.60;;;;;;5026417;28;19913;-56
2022/04/26 10:28:51;;;;;;;;;;;17.50;86.40;;;;;;5027088;28;20463;-57
2022/04/26 10:31:22;;;;;;;;;;;17.50;78.10;;;;;;5036196;28;19918;-57
2022/04/26 10:33:47;;;;;;;;;;;17.40;79.60;;;;;;5031097;28;19913;-56
2022/04/26 10:36:28;;;;;;;;;;;17.20;78.70;;;;;;5031121;28;20396;-54
2022/04/26 10:39:06;;;;;;;;;;;17.10;80.50;;;;;;5026536;28;19909;-55
2022/04/26 10:41:33;;;;;;;;;;;17.10;81.60;;;;;;5026835;28;19917;-58
2022/04/26 10:44:15;;;;;;;;;;;17.10;82.90;;;;;;5026623;28;19936;-58
2022/04/26 10:46:41;;;;;;;;;;;17.30;83.70;;;;;;5027591;28;19924;-58
2022/04/26 10:49:23;;;;;;;;;;;17.10;78.90;;;;;;5029302;28;19913;-58
2022/04/26 10:51:52;;;;;;;;;;;17.10;81.20;;;;;;5024495;28;20344;-58
2022/04/26 10:54:36;;;;;;;;;;;17.00;83.10;;;;;;5031696;28;20418;-58
2022/04/26 10:57:02;;;;;;;;;;;17.00;82.40;;;;;;5024774;28;20382;-55
2022/04/26 10:59:27;;;;;;;;;;;16.80;82.30;;;;;;5025726;28;20080;-57
2022/04/26 11:01:54;;;;;;;;;;;16.60;83.90;;;;;;5025141;28;20027;-57
2022/04/26 11:04:20;;;;;;;;;;;16.50;84.30;;;;;;5033442;28;19996;-57
2022/04/26 11:06:45;;;;;;;;;;;16.40;85.70;;;;;;5026040;28;20429;-56
2022/04/26 11:09:13;;;;;;;;;;;16.20;84.80;;;;;;5030858;28;19928;-57
2022/04/26 11:11:48;;;;;;;;;;;16.00;87.10;;;;;;5030932;28;19913;-55
2022/04/26 11:14:15;;;;;;;;;;;15.60;93.20;;;;;;5030830;28;19921;-56
2022/04/26 11:16:53;;;;;;;;;;;15.20;94.30;;;;;;5029592;28;19921;-56
2022/04/26 11:19:31;;;;;;;;;;;14.80;96.40;;;;;;5031534;28;19913;-55
2022/04/26 11:22:03;;;;;;;;;;;14.20;97.90;;;;;;5030214;28;19930;-57
2022/04/26 11:29:57;;;;;;;;;;;12.70;99.90;;;;;;5030437;28;19915;-56
2022/04/26 11:32:30;;;;;;;;;;;12.10;99.90;;;;;;5029578;28;19917;-55
2022/04/26 11:34:56;;;;;;;;;;;11.50;99.90;;;;;;5036468;28;19928;-56
2022/04/26 11:37:22;;;;;;;;;;;11.10;99.90;;;;;;5028481;28;20306;-57
2022/04/26 11:39:48;;;;;;;;;;;10.90;99.90;;;;;;5029809;28;20100;-56
2022/04/26 11:42:13;;;;;;;;;;;10.90;99.90;;;;;;5033653;28;20114;-57
2022/04/26 11:45:05;;;;;;;;;;;10.90;99.90;;;;;;5041468;28;19917;-57
2022/04/26 11:47:37;;;;;;;;;;;10.90;99.90;;;;;;5031874;28;19915;-57
2022/04/26 11:50:18;;;;;;;;;;;11.00;99.90;;;;;;5032623;28;19912;-57
2022/04/26 11:52:44;;;;;;;;;;;11.00;99.90;;;;;;5029036;28;20413;-56
2022/04/26 11:55:25;;;;;;;;;;;11.00;99.90;;;;;;5010131;28;19967;-55
2022/04/26 11:57:51;;;;;;;;;;;10.90;99.90;;;;;;5027654;28;19925;-55
2022/04/26 12:00:17;;;;;;;;;;;11.00;99.90;;;;;;5029256;28;19924;-58
2022/04/26 12:02:43;;;;;;;;;;;11.10;99.90;;;;;;5032526;28;19920;-56
2022/04/26 12:05:09;;;;;;;;;;;11.20;99.90;;;;;;5034433;28;19994;-57
2022/04/26 12:07:35;;;;;;;;;;;11.30;99.90;;;;;;5038537;28;20338;-54
2022/04/26 12:10:00;;;;;;;;;;;11.40;99.90;;;;;;5024324;28;19983;-56
2022/04/26 12:12:27;;;;;;;;;;;11.50;99.90;;;;;;5031000;28;19967;-54
2022/04/26 12:14:53;;;;;;;;;;;11.50;99.90;;;;;;5034977;28;19917;-56
2022/04/26 12:17:22;;;;;;;;;;;11.60;99.90;;;;;;5034216;28;19931;-56
2022/04/26 12:19:51;;;;;;;;;;;11.70;99.90;;;;;;5028605;28;19924;-57
2022/04/26 12:22:19;;;;;;;;;;;11.80;99.90;;;;;;5033064;28;19920;-57
2022/04/26 12:24:51;;;;;;;;;;;12.00;99.90;;;;;;5034478;28;20475;-56
2022/04/26 12:27:19;;;;;;;;;;;12.10;99.90;;;;;;5035179;28;19916;-58
2022/04/26 12:29:46;;;;;;;;;;;12.20;99.90;;;;;;5039209;28;19914;-57
2022/04/26 12:32:21;;;;;;;;;;;12.40;99.90;;;;;;5032417;28;20282;-57
2022/04/26 12:34:48;;;;;;;;;;;12.50;99.90;;;;;;5036538;28;19979;-55
2022/04/26 12:37:23;;;;;;;;;;;12.70;99.90;;;;;;5030877;28;20358;-57
2022/04/26 12:39:53;;;;;;;;;;;12.90;99.90;;;;;;5031687;28;20364;-56
2022/04/26 12:42:28;;;;;;;;;;;13.10;99.90;;;;;;5028582;28;20194;-58
2022/04/26 12:44:58;;;;;;;;;;;13.20;99.90;;;;;;5039131;28;19920;-56
2022/04/26 12:52:54;;;;;;;;;;;13.60;99.90;;;;;;5029439;28;20222;-55
2022/04/26 12:55:29;;;;;;;;;;;13.70;99.80;;;;;;5037131;28;19920;-56
2022/04/26 12:57:55;;;;;;;;;;;13.70;99.80;;;;;;5028167;28;19917;-58
2022/04/26 13:00:21;;;;;;;;;;;13.80;99.70;;;;;;5032996;28;19921;-57
2022/04/26 13:02:47;;;;;;;;;;;13.80;99.80;;;;;;5030782;28;19951;-57
2022/04/26 13:05:13;;;;;;;;;;;13.90;99.90;;;;;;5034479;28;20347;-58
2022/04/26 13:07:38;;;;;;;;;;;14.00;99.90;;;;;;5033578;28;19920;-56
2022/04/26 13:10:04;;;;;;;;;;;14.00;99.90;;;;;;5028293;28;19921;-57
2022/04/26 13:12:31;;;;;;;;;;;14.00;99.90;;;;;;5030128;28;19921;-58
2022/04/26 13:14:57;;;;;;;;;;;14.10;99.90;;;;;;5028335;28;20363;-56
2022/04/26 13:17:22;;;;;;;;;;;14.10;99.90;;;;;;5032744;28;19928;-57
2022/04/26 13:19:48;;;;;;;;;;;14.20;99.90;;;;;;5031851;28;19928;-57
2022/04/26 13:22:16;;;;;;;;;;;14.30;99.70;;;;;;5033518;28;19982;-58
2022/04/26 13:24:42;;;;;;;;;;;14.30;99.00;;;;;;5028547;28;19909;-57
2022/04/26 13:27:07;;;;;;;;;;;14.40;98.80;;;;;;5027642;28;20432;-56
2022/04/26 13:29:33;;;;;;;;;;;14.40;98.70;;;;;;5037905;28;19924;-58
2022/04/26 13:31:58;;;;;;;;;;;14.50;98.00;;;;;;5028807;28;19932;-57
2022/04/26 13:34:24;;;;;;;;;;;14.60;97.00;;;;;;5027008;28;19913;-58
2022/04/26 13:36:51;;;;;;;;;;;14.60;97.30;;;;;;5029312;28;19913;-57
2022/04/26 13:39:16;;;;;;;;;;;14.70;97.50;;;;;;5029746;28;20362;-58
2022/04/26 13:41:42;;;;;;;;;;;14.90;97.60;;;;;;5033981;28;19915;-57
2022/04/26 13:44:07;;;;;;;;;;;15.00;97.70;;;;;;5035388;28;20518;-57
2022/04/26 13:46:32;;;;;;;;;;;15.10;96.80;;;;;;5032309;28;20321;-58
2022/04/26 13:48:58;;;;;;;;;;;15.30;97.10;;;;;;5031364;28;19921;-55
2022/04/26 13:51:29;;;;;;;;;;;15.40;97.00;;;;;;5030096;28;20278;-58
2022/04/26 13:53:54;;;;;;;;;;;15.60;96.90;;;;;;5035291;28;19967;-56
2022/04/26 13:56:20;;;;;;;;;;;15.60;96.10;;;;;;5037712;28;19925;-58
2022/04/26 13:58:45;;;;;;;;;;;15.70;95.70;;;;;;5032479;28;19912;-57
2022/04/26 14:01:11;;;;;;;;;;;15.70;94.70;;;;;;5031004;28;19924;-57
2022/04/26 14:03:36;;;;;;;;;;;15.90;94.40;;;;;;5034007;28;19916;-56
2022/04/26 14:06:02;;;;;;;;;;;15.90;93.50;;;;;;5029572;28;20023;-58
2022/04/26 14:08:29;;;;;;;;;;;15.90;93.10;;;;;;5031163;28;19919;-57
2022/04/26 14:10:54;;;;;;;;;;;15.90;93.20;;;;;;5029929;28;19909;-56
2022/04/26 14:13:20;;;;;;;;;;;16.00;93.00;;;;;;5024948;28;20382;-58
2022/04/26 14:24:06;;;;;;;;;;;16.10;90.50;;;;;;5029568;28;20316;-57
2022/04/26 14:26:31;;;;;;;;;;;16.10;91.90;;;;;;5032250;28;19918;-58
2022/04/26 14:28:57;;;;;;;;;;;16.10;90.80;;;;;;5029671;28;19917;-57
2022/04/26 14:31:22;;;;;;;;;;;16.10;90.70;;;;;;5021528;28;20450;-58
2022/04/26 14:33:47;;;;;;;;;;;16.00;90.60;;;;;;5027308;28;20825;-55
2022/04/26 14:36:13;;;;;;;;;;;16.00;85.60;;;;;;5024431;28;19917;-58
2022/04/26 14:38:38;;;;;;;;;;;15.90;86.90;;;;;;5024831;28;19913;-58
2022/04/26 14:41:04;;;;;;;;;;;15.80;89.70;;;;;;5028349;28;19979;-55
2022/04/26 14:43:30;;;;;;;;;;;15.80;88.70;;;;;;5027478;28;19964;-56
2022/04/26 14:45:55;;;;;;;;;;;15.80;90.40;;;;;;5029912;28;20091;-57
2022/04/26 14:48:23;;;;;;;;;;;15.80;90.00;;;;;;5030836;28;19920;-57
2022/04/26 14:50:48;;;;;;;;;;;15.70;90.40;;;;;;5031256;28;19975;-57
2022/04/26 14:53:14;;;;;;;;;;;15.70;90.70;;;;;;5036593;28;20406;-58
2022/04/26 14:55:40;;;;;;;;;;;15.70;90.50;;;;;;5034295;28;19936;-57
2022/04/26 14:58:06;;;;;;;;;;;15.60;89.80;;;;;;5035553;28;19949;-58
2022/04/26 15:00:35;;;;;;;;;;;15.60;89.70;;;;;;5031887;28;19917;-56
2022/04/26 15:03:00;;;;;;;;;;;15.60;90.90;;;;;;5028697;28;20016;-58
2022/04/26 15:05:26;;;;;;;;;;;15.60;89.00;;;;;;5031765;28;20011;-58
2022/04/26 15:10:36;;;;;;;;;;;15.60;90.70;;;;;;5029603;28;19924;-58
2022/04/26 15:18:29;;;;;;;;;;;15.30;90.70;;;;;;5031574;28;19923;-57
2022/04/26 15:20:54;;;;;;;;;;;15.20;90.60;;;;;;5032650;28;20007;-57
2022/04/26 15:23:20;;;;;;;;;;;15.20;90.70;;;;;;5029990;28;19952;-57
2022/04/26 15:25:50;;;;;;;;;;;15.10;90.80;;;;;;5032745;28;19913;-55
2022/04/26 15:28:16;;;;;;;;;;;15.10;91.50;;;;;;5037373;28;19926;-57
2022/04/26 15:30:42;;;;;;;;;;;15.20;91.50;;;;;;5025522;28;19925;-57
2022/04/26 15:33:08;;;;;;;;;;;15.10;91.20;;;;;;5026657;28;19970;-57
2022/04/26 15:35:33;;;;;;;;;;;15.10;92.00;;;;;;5029556;28;19917;-58
2022/04/26 15:37:59;;;;;;;;;;;15.00;91.90;;;;;;5028457;28;20266;-55
2022/04/26 15:40:24;;;;;;;;;;;15.00;92.10;;;;;;5028625;28;20078;-57
2022/04/26 15:42:50;;;;;;;;;;;15.00;92.10;;;;;;5029945;28;19920;-57
2022/04/26 15:45:15;;;;;;;;;;;15.00;92.50;;;;;;5029350;28;20437;-55
2022/04/26 15:47:41;;;;;;;;;;;15.00;92.50;;;;;;5028870;28;20447;-57
2022/04/26 15:50:06;;;;;;;;;;;15.00;92.50;;;;;;5027640;28;20401;-57
2022/04/26 15:52:33;;;;;;;;;;;15.00;92.40;;;;;;5030591;28;20370;-58
2022/04/26 15:54:59;;;;;;;;;;;15.00;92.20;;;;;;5026568;28;19913;-56
2022/04/26 15:57:24;;;;;;;;;;;15.00;92.10;;;;;;5030264;28;19932;-56
2022/04/26 15:59:50;;;;;;;;;;;15.00;92.60;;;;;;5023306;28;19979;-57
2022/04/26 16:02:16;;;;;;;;;;;15.00;92.00;;;;;;5025272;28;19920;-56
2022/04/26 16:04:42;;;;;;;;;;;15.10;92.60;;;;;;5029070;28;20370;-55
2022/04/26 16:07:08;;;;;;;;;;;15.10;92.40;;;;;;5033238;28;19920;-51
2022/04/26 16:20:30;;;;;;;;;;;15.10;92.60;;;;;;5028485;28;19924;-57
2022/04/26 16:23:00;;;;;;;;;;;15.20;92.70;;;;;;5030003;28;19913;-55
2022/04/26 16:25:26;;;;;;;;;;;15.20;92.50;;;;;;5028968;28;19913;-58
2022/04/26 16:27:51;;;;;;;;;;;15.10;92.70;;;;;;5026138;28;19917;-55
2022/04/26 16:30:17;;;;;;;;;;;15.10;92.70;;;;;;5033516;28;19917;-57
2022/04/26 16:32:43;;;;;;;;;;;15.10;92.90;;;;;;5027124;28;19913;-57
2022/04/26 16:35:10;;;;;;;;;;;15.10;92.30;;;;;;5032675;28;19956;-56
2022/04/26 16:37:36;;;;;;;;;;;15.10;92.40;;;;;;5036349;28;20546;-56
2022/04/26 16:40:02;;;;;;;;;;;15.00;91.70;;;;;;5031042;28;19909;-56
2022/04/26 16:42:30;;;;;;;;;;;15.00;92.20;;;;;;5041773;28;20394;-57
2022/04/26 16:44:56;;;;;;;;;;;14.90;92.30;;;;;;5029395;28;19920;-57
2022/04/26 16:47:21;;;;;;;;;;;14.90;92.40;;;;;;5027341;28;20055;-56
2022/04/26 16:49:46;;;;;;;;;;;14.90;92.40;;;;;;5029661;28;20007;-56
2022/04/26 16:52:12;;;;;;;;;;;15.00;93.80;;;;;;5024861;28;19964;-57
2022/04/26 16:54:38;;;;;;;;;;;15.00;93.20;;;;;;5029646;28;20020;-54
2022/04/26 16:57:03;;;;;;;;;;;15.00;92.80;;;;;;5029283;28;19956;-57
2022/04/26 16:59:30;;;;;;;;;;;15.00;92.40;;;;;;5026436;28;20413;-55
2022/04/26 17:01:55;;;;;;;;;;;14.90;92.70;;;;;;5031397;28;19924;-57
2022/04/26 17:04:22;;;;;;;;;;;14.90;92.60;;;;;;5025748;28;19913;-57
2022/04/26 17:06:47;;;;;;;;;;;14.80;92.30;;;;;;5033259;28;19912;-57
2022/04/26 17:09:13;;;;;;;;;;;14.80;92.30;;;;;;5033427;28;20730;-58
2022/04/26 17:11:42;;;;;;;;;;;14.80;92.50;;;;;;5035781;28;20344;-57
2022/04/26 17:14:07;;;;;;;;;;;14.70;92.40;;;;;;5036114;28;20367;-56
2022/04/26 17:16:32;;;;;;;;;;;14.70;92.60;;;;;;5035590;28;19970;-57
2022/04/26 17:18:58;;;;;;;;;;;14.70;92.40;;;;;;5035799;28;19913;-56
2022/04/26 17:21:24;;;;;;;;;;;14.60;92.60;;;;;;5028780;28;19920;-57
2022/04/26 17:23:50;;;;;;;;;;;14.60;92.60;;;;;;5031303;28;19921;-59
2022/04/26 17:26:17;;;;;;;;;;;14.50;92.60;;;;;;5031306;28;19916;-52
2022/04/26 17:28:43;;;;;;;;;;;14.50;92.80;;;;;;5034260;28;19913;-56
2022/04/26 17:31:09;;;;;;;;;;;14.40;92.70;;;;;;5028559;28;20000;-54
2022/04/26 17:33:34;;;;;;;;;;;14.40;92.90;;;;;;5026230;28;19913;-54
2022/04/26 17:35:59;;;;;;;;;;;14.30;93.00;;;;;;5022383;28;19921;-56
2022/04/26 17:38:25;;;;;;;;;;;14.30;93.10;;;;;;5027927;28;19920;-54
2022/04/26 17:40:51;;;;;;;;;;;14.30;93.30;;;;;;5026633;28;19917;-54
2022/04/26 17:43:16;;;;;;;;;;;14.20;93.10;;;;;;5025334;28;19913;-54
2022/04/26 17:45:46;;;;;;;;;;;14.20;93.20;;;;;;5027827;28;19917;-55
2022/04/26 17:48:12;;;;;;;;;;;14.20;93.30;;;;;;5026260;28;19917;-54
2022/04/26 17:50:38;;;;;;;;;;;14.10;93.40;;;;;;5034235;28;20248;-55
2022/04/26 17:58:31;;;;;;;;;;;14.10;93.70;;;;;;5030651;28;20207;-55
2022/04/26 18:00:57;;;;;;;;;;;14.10;93.90;;;;;;5029481;28;19912;-57
2022/04/26 18:03:24;;;;;;;;;;;14.00;94.00;;;;;;5028856;28;20011;-57
2022/04/26 18:05:49;;;;;;;;;;;14.00;94.20;;;;;;5026746;28;19923;-56
2022/04/26 18:08:15;;;;;;;;;;;13.90;94.30;;;;;;5027574;28;20357;-56
2022/04/26 18:10:41;;;;;;;;;;;13.90;94.40;;;;;;5027865;28;20085;-57
2022/04/26 18:13:07;;;;;;;;;;;13.90;94.40;;;;;;5057316;23;19971;-56
2022/04/26 18:15:32;;;;;;;;;;;13.90;94.40;;;;;;5042662;28;19952;-54
2022/04/26 18:18:01;;;;;;;;;;;13.90;94.60;;;;;;5045268;28;19970;-56
2022/04/26 18:20:26;;;;;;;;;;;13.90;94.50;;;;;;5045432;28;19920;-55
2022/04/26 18:22:52;;;;;;;;;;;13.80;94.50;;;;;;5044366;28;19921;-53
2022/04/26 18:26:10;;;;;;;;;;;13.80;94.60;;;;;;5054472;28;19924;-57
2022/04/26 18:28:03;;;;;;;;;;;13.80;94.70;;;;;;5054914;22;19935;-57
2022/04/26 18:30:28;;;;;;;;;;;13.80;94.70;;;;;;5033210;28;20043;-58
2022/04/26 18:32:53;;;;;;;;;;;13.80;94.90;;;;;;5028483;28;19921;-55
2022/04/26 18:35:19;;;;;;;;;;;13.80;94.90;;;;;;5033601;28;20391;-57
2022/04/26 18:37:46;;;;;;;;;;;13.70;95.00;;;;;;5029048;28;21896;-57
2022/04/26 18:40:12;;;;;;;;;;;13.70;95.00;;;;;;5032599;28;19999;-57
2022/04/26 18:42:37;;;;;;;;;;;13.70;95.00;;;;;;5030375;28;20000;-56
2022/04/26 18:45:03;;;;;;;;;;;13.70;95.10;;;;;;5030397;28;19917;-56
2022/04/26 18:47:29;;;;;;;;;;;13.70;95.20;;;;;;5032565;28;19921;-56
2022/04/26 18:49:54;;;;;;;;;;;13.60;95.20;;;;;;5034962;28;19928;-55